Junks, Louisiana
Current Conditions -  °F | °C
As of 5:15 PM on Tuesday 27 Jan 2015 (Local Time) from KHEZ Reporting Station
Clear Clear  
Wind Chill: 66°   Ceiling: Unl
Heat Index: 66°   Visibility: 10mi
Dew Point: 36°   Wind: 7mph
Humidity: 32%   Direction: 320°NW
Pressure: 30.13"   Gusts: NA
Location:  31.828°N, 91.4836°W
Report Text: KHEZ 272315Z AUTO 32006KT 10SM CLR 19/02 A3013 RMK AO1
Loading
Personal Weather Stations






























Interactive Weather Map New forecast layout! Learn more

10-Day Weather Forecast

Advertisements
Track Severe Weather on mobile